sensor_id;sensor_type;location;lat;lon;timestamp;temperature;humidity
32217;DHT22;67098;51.140;4.088;2023-04-03T00:01:11;6.10;90.70
32217;DHT22;67098;51.140;4.088;2023-04-03T00:03:37;6.20;90.60
32217;DHT22;67098;51.140;4.088;2023-04-03T00:06:04;6.20;90.50
32217;DHT22;67098;51.140;4.088;2023-04-03T00:08:32;6.10;90.60
32217;DHT22;67098;51.140;4.088;2023-04-03T00:10:58;6.10;90.60
32217;DHT22;67098;51.140;4.088;2023-04-03T00:13:24;6.10;90.60
32217;DHT22;67098;51.140;4.088;2023-04-03T00:15:51;6.00;90.70
32217;DHT22;67098;51.140;4.088;2023-04-03T00:18:17;6.10;90.60
32217;DHT22;67098;51.140;4.088;2023-04-03T00:20:43;6.00;90.50
32217;DHT22;67098;51.140;4.088;2023-04-03T00:23:09;6.00;90.60
32217;DHT22;67098;51.140;4.088;2023-04-03T00:25:35;6.00;90.60
32217;DHT22;67098;51.140;4.088;2023-04-03T00:28:01;6.00;90.60
32217;DHT22;67098;51.140;4.088;2023-04-03T00:30:27;6.00;90.70
32217;DHT22;67098;51.140;4.088;2023-04-03T00:32:54;6.00;90.70
32217;DHT22;67098;51.140;4.088;2023-04-03T00:35:21;6.00;90.70
32217;DHT22;67098;51.140;4.088;2023-04-03T00:37:47;6.00;90.60
32217;DHT22;67098;51.140;4.088;2023-04-03T00:40:14;5.90;90.60
32217;DHT22;67098;51.140;4.088;2023-04-03T00:42:42;5.80;90.80
32217;DHT22;67098;51.140;4.088;2023-04-03T00:47:37;5.80;90.70
32217;DHT22;67098;51.140;4.088;2023-04-03T00:50:04;5.80;90.80
32217;DHT22;67098;51.140;4.088;2023-04-03T00:52:31;5.80;90.80
32217;DHT22;67098;51.140;4.088;2023-04-03T00:54:59;5.80;91.00
32217;DHT22;67098;51.140;4.088;2023-04-03T00:57:27;5.80;90.80
32217;DHT22;67098;51.140;4.088;2023-04-03T01:00:00;5.80;90.70
32217;DHT22;67098;51.140;4.088;2023-04-03T01:02:27;5.80;90.70
32217;DHT22;67098;51.140;4.088;2023-04-03T01:04:53;5.70;90.60
32217;DHT22;67098;51.140;4.088;2023-04-03T01:07:24;5.70;90.60
32217;DHT22;67098;51.140;4.088;2023-04-03T01:09:56;5.50;90.90
32217;DHT22;67098;51.140;4.088;2023-04-03T01:12:26;5.50;91.10
32217;DHT22;67098;51.140;4.088;2023-04-03T01:15:16;5.50;91.30
32217;DHT22;67098;51.140;4.088;2023-04-03T01:17:51;5.40;91.30
32217;DHT22;67098;51.140;4.088;2023-04-03T01:25:29;5.30;91.60
32217;DHT22;67098;51.140;4.088;2023-04-03T01:27:55;5.40;91.30
32217;DHT22;67098;51.140;4.088;2023-04-03T01:30:22;5.50;90.90
32217;DHT22;67098;51.140;4.088;2023-04-03T01:32:50;5.60;90.70
32217;DHT22;67098;51.140;4.088;2023-04-03T01:35:15;5.60;90.60
32217;DHT22;67098;51.140;4.088;2023-04-03T01:37:41;5.60;90.60
32217;DHT22;67098;51.140;4.088;2023-04-03T01:40:07;5.60;90.50
32217;DHT22;67098;51.140;4.088;2023-04-03T01:42:33;5.60;90.60
32217;DHT22;67098;51.140;4.088;2023-04-03T01:44:59;5.50;90.50
32217;DHT22;67098;51.140;4.088;2023-04-03T01:47:25;5.50;90.70
32217;DHT22;67098;51.140;4.088;2023-04-03T01:49:50;5.50;90.80
32217;DHT22;67098;51.140;4.088;2023-04-03T01:52:16;5.50;90.70
32217;DHT22;67098;51.140;4.088;2023-04-03T01:54:42;5.40;90.60
32217;DHT22;67098;51.140;4.088;2023-04-03T01:57:07;5.50;90.70
32217;DHT22;67098;51.140;4.088;2023-04-03T01:59:33;5.40;90.60
32217;DHT22;67098;51.140;4.088;2023-04-03T02:01:58;5.30;90.70
32217;DHT22;67098;51.140;4.088;2023-04-03T02:04:24;5.20;90.70
32217;DHT22;67098;51.140;4.088;2023-04-03T02:06:50;5.20;90.80
32217;DHT22;67098;51.140;4.088;2023-04-03T02:09:15;5.20;90.70
32217;DHT22;67098;51.140;4.088;2023-04-03T02:11:41;5.20;90.70
32217;DHT22;67098;51.140;4.088;2023-04-03T02:14:07;5.20;90.80
32217;DHT22;67098;51.140;4.088;2023-04-03T02:16:32;5.30;90.60
32217;DHT22;67098;51.140;4.088;2023-04-03T02:18:58;5.20;90.70
32217;DHT22;67098;51.140;4.088;2023-04-03T02:21:23;5.20;90.80
32217;DHT22;67098;51.140;4.088;2023-04-03T02:23:49;5.20;90.80
32217;DHT22;67098;51.140;4.088;2023-04-03T02:26:16;5.30;90.80
32217;DHT22;67098;51.140;4.088;2023-04-03T02:28:42;5.20;90.80
32217;DHT22;67098;51.140;4.088;2023-04-03T02:31:09;5.10;91.00
32217;DHT22;67098;51.140;4.088;2023-04-03T02:33:36;5.20;90.80
32217;DHT22;67098;51.140;4.088;2023-04-03T02:36:06;5.10;90.70
32217;DHT22;67098;51.140;4.088;2023-04-03T02:38:32;5.20;90.80
32217;DHT22;67098;51.140;4.088;2023-04-03T02:41:03;5.10;90.90
32217;DHT22;67098;51.140;4.088;2023-04-03T02:43:29;5.10;90.90
32217;DHT22;67098;51.140;4.088;2023-04-03T02:45:55;5.10;90.70
32217;DHT22;67098;51.140;4.088;2023-04-03T02:48:21;5.10;90.70
32217;DHT22;67098;51.140;4.088;2023-04-03T02:50:46;5.10;90.70
32217;DHT22;67098;51.140;4.088;2023-04-03T02:53:12;5.00;90.90
32217;DHT22;67098;51.140;4.088;2023-04-03T02:55:37;5.00;90.80
32217;DHT22;67098;51.140;4.088;2023-04-03T02:58:03;5.00;90.70
32217;DHT22;67098;51.140;4.088;2023-04-03T03:00:29;5.00;90.80
32217;DHT22;67098;51.140;4.088;2023-04-03T03:02:55;5.00;90.50
32217;DHT22;67098;51.140;4.088;2023-04-03T03:05:21;5.00;90.70
32217;DHT22;67098;51.140;4.088;2023-04-03T03:07:47;4.90;90.70
32217;DHT22;67098;51.140;4.088;2023-04-03T03:10:12;4.90;90.70
32217;DHT22;67098;51.140;4.088;2023-04-03T03:12:38;4.90;90.70
32217;DHT22;67098;51.140;4.088;2023-04-03T03:15:04;4.90;90.60
32217;DHT22;67098;51.140;4.088;2023-04-03T03:17:30;4.80;90.60
32217;DHT22;67098;51.140;4.088;2023-04-03T03:19:55;4.80;90.80
32217;DHT22;67098;51.140;4.088;2023-04-03T03:22:21;4.80;90.80
32217;DHT22;67098;51.140;4.088;2023-04-03T03:24:47;4.80;90.70
32217;DHT22;67098;51.140;4.088;2023-04-03T03:27:12;4.80;90.70
32217;DHT22;67098;51.140;4.088;2023-04-03T03:29:38;4.80;90.70
32217;DHT22;67098;51.140;4.088;2023-04-03T03:32:04;4.70;90.90
32217;DHT22;67098;51.140;4.088;2023-04-03T03:34:29;4.70;90.90
32217;DHT22;67098;51.140;4.088;2023-04-03T03:36:55;4.70;90.90
32217;DHT22;67098;51.140;4.088;2023-04-03T03:39:21;4.80;90.70
32217;DHT22;67098;51.140;4.088;2023-04-03T03:41:46;4.80;90.70
32217;DHT22;67098;51.140;4.088;2023-04-03T03:44:12;4.80;90.70
32217;DHT22;67098;51.140;4.088;2023-04-03T03:46:38;4.70;90.80
32217;DHT22;67098;51.140;4.088;2023-04-03T03:49:04;4.70;90.70
32217;DHT22;67098;51.140;4.088;2023-04-03T03:51:29;4.70;90.80
32217;DHT22;67098;51.140;4.088;2023-04-03T03:53:55;4.70;90.70
32217;DHT22;67098;51.140;4.088;2023-04-03T03:56:21;4.70;90.80
32217;DHT22;67098;51.140;4.088;2023-04-03T03:58:46;4.60;90.80
32217;DHT22;67098;51.140;4.088;2023-04-03T04:01:12;4.60;90.90
32217;DHT22;67098;51.140;4.088;2023-04-03T04:03:38;4.60;91.00
32217;DHT22;67098;51.140;4.088;2023-04-03T04:06:03;4.60;90.90
32217;DHT22;67098;51.140;4.088;2023-04-03T04:08:29;4.60;90.90
32217;DHT22;67098;51.140;4.088;2023-04-03T04:10:55;4.60;90.90
32217;DHT22;67098;51.140;4.088;2023-04-03T04:13:21;4.60;90.90
32217;DHT22;67098;51.140;4.088;2023-04-03T04:15:46;4.60;91.00
32217;DHT22;67098;51.140;4.088;2023-04-03T04:18:12;4.60;91.00
32217;DHT22;67098;51.140;4.088;2023-04-03T04:20:37;4.60;90.80
32217;DHT22;67098;51.140;4.088;2023-04-03T04:23:03;4.50;90.80
32217;DHT22;67098;51.140;4.088;2023-04-03T04:25:29;4.50;91.00
32217;DHT22;67098;51.140;4.088;2023-04-03T04:27:54;4.50;91.10
32217;DHT22;67098;51.140;4.088;2023-04-03T04:30:20;4.50;91.10
32217;DHT22;67098;51.140;4.088;2023-04-03T04:32:46;4.50;90.90
32217;DHT22;67098;51.140;4.088;2023-04-03T04:35:12;4.40;90.90
32217;DHT22;67098;51.140;4.088;2023-04-03T04:37:37;4.40;90.90
32217;DHT22;67098;51.140;4.088;2023-04-03T04:40:03;4.50;90.80
32217;DHT22;67098;51.140;4.088;2023-04-03T04:42:29;4.40;90.80
32217;DHT22;67098;51.140;4.088;2023-04-03T04:44:54;4.40;90.90
32217;DHT22;67098;51.140;4.088;2023-04-03T04:47:20;4.40;90.90
32217;DHT22;67098;51.140;4.088;2023-04-03T04:49:46;4.40;90.80
32217;DHT22;67098;51.140;4.088;2023-04-03T04:52:13;4.40;90.90
32217;DHT22;67098;51.140;4.088;2023-04-03T04:54:39;4.40;90.80
32217;DHT22;67098;51.140;4.088;2023-04-03T04:57:04;4.40;90.70
32217;DHT22;67098;51.140;4.088;2023-04-03T04:59:30;4.30;90.70
32217;DHT22;67098;51.140;4.088;2023-04-03T05:01:55;4.30;90.80
32217;DHT22;67098;51.140;4.088;2023-04-03T05:04:21;4.20;90.80
32217;DHT22;67098;51.140;4.088;2023-04-03T05:06:47;4.30;90.70
32217;DHT22;67098;51.140;4.088;2023-04-03T05:09:13;4.30;90.80
32217;DHT22;67098;51.140;4.088;2023-04-03T05:11:38;4.30;90.90
32217;DHT22;67098;51.140;4.088;2023-04-03T05:14:04;4.30;90.70
32217;DHT22;67098;51.140;4.088;2023-04-03T05:16:32;4.20;90.90
32217;DHT22;67098;51.140;4.088;2023-04-03T05:18:58;4.20;90.80
32217;DHT22;67098;51.140;4.088;2023-04-03T05:21:23;4.20;90.80
32217;DHT22;67098;51.140;4.088;2023-04-03T05:23:51;4.20;90.90
32217;DHT22;67098;51.140;4.088;2023-04-03T05:26:17;4.20;90.90
32217;DHT22;67098;51.140;4.088;2023-04-03T05:28:43;4.20;91.10
32217;DHT22;67098;51.140;4.088;2023-04-03T05:31:09;4.20;91.10
32217;DHT22;67098;51.140;4.088;2023-04-03T05:33:34;4.20;91.20
32217;DHT22;67098;51.140;4.088;2023-04-03T05:36:06;4.20;91.10
32217;DHT22;67098;51.140;4.088;2023-04-03T05:38:32;4.20;91.20
32217;DHT22;67098;51.140;4.088;2023-04-03T05:40:58;4.30;91.20
32217;DHT22;67098;51.140;4.088;2023-04-03T05:43:24;4.20;91.10
32217;DHT22;67098;51.140;4.088;2023-04-03T05:45:50;4.30;91.20
32217;DHT22;67098;51.140;4.088;2023-04-03T05:48:16;4.20;91.20
32217;DHT22;67098;51.140;4.088;2023-04-03T05:50:42;4.30;91.40
32217;DHT22;67098;51.140;4.088;2023-04-03T05:53:16;4.30;91.40
32217;DHT22;67098;51.140;4.088;2023-04-03T05:55:43;4.40;91.50
32217;DHT22;67098;51.140;4.088;2023-04-03T05:58:09;4.40;91.80
32217;DHT22;67098;51.140;4.088;2023-04-03T06:00:34;4.50;91.90
32217;DHT22;67098;51.140;4.088;2023-04-03T06:03:00;4.60;92.00
32217;DHT22;67098;51.140;4.088;2023-04-03T06:05:26;4.80;92.00
32217;DHT22;67098;51.140;4.088;2023-04-03T06:07:51;4.90;92.10
32217;DHT22;67098;51.140;4.088;2023-04-03T06:10:17;5.00;92.10
32217;DHT22;67098;51.140;4.088;2023-04-03T06:12:42;5.10;92.10
32217;DHT22;67098;51.140;4.088;2023-04-03T06:15:08;5.30;92.10
32217;DHT22;67098;51.140;4.088;2023-04-03T06:17:36;5.40;92.10
32217;DHT22;67098;51.140;4.088;2023-04-03T06:20:03;5.60;92.20
32217;DHT22;67098;51.140;4.088;2023-04-03T06:22:29;5.70;92.00
32217;DHT22;67098;51.140;4.088;2023-04-03T06:24:55;5.80;91.90
32217;DHT22;67098;51.140;4.088;2023-04-03T06:27:21;6.00;92.10
32217;DHT22;67098;51.140;4.088;2023-04-03T06:29:47;6.20;92.10
32217;DHT22;67098;51.140;4.088;2023-04-03T06:32:14;6.40;92.10
32217;DHT22;67098;51.140;4.088;2023-04-03T06:34:40;6.50;92.00
32217;DHT22;67098;51.140;4.088;2023-04-03T06:37:10;6.80;92.30
32217;DHT22;67098;51.140;4.088;2023-04-03T06:39:36;6.90;92.30
32217;DHT22;67098;51.140;4.088;2023-04-03T06:42:01;7.10;92.40
32217;DHT22;67098;51.140;4.088;2023-04-03T06:44:27;7.30;92.20
32217;DHT22;67098;51.140;4.088;2023-04-03T06:46:53;7.50;92.20
32217;DHT22;67098;51.140;4.088;2023-04-03T06:49:19;7.60;92.20
32217;DHT22;67098;51.140;4.088;2023-04-03T06:51:45;7.70;92.20
32217;DHT22;67098;51.140;4.088;2023-04-03T06:54:11;7.90;92.00
32217;DHT22;67098;51.140;4.088;2023-04-03T06:56:37;8.00;91.90
32217;DHT22;67098;51.140;4.088;2023-04-03T06:59:03;8.10;91.60
32217;DHT22;67098;51.140;4.088;2023-04-03T07:01:29;8.20;91.80
32217;DHT22;67098;51.140;4.088;2023-04-03T07:03:55;8.30;91.20
32217;DHT22;67098;51.140;4.088;2023-04-03T07:06:21;8.20;90.90
32217;DHT22;67098;51.140;4.088;2023-04-03T07:08:47;8.30;90.70
32217;DHT22;67098;51.140;4.088;2023-04-03T07:11:14;8.20;90.70
32217;DHT22;67098;51.140;4.088;2023-04-03T07:13:40;8.30;91.00
32217;DHT22;67098;51.140;4.088;2023-04-03T07:16:07;8.40;90.50
32217;DHT22;67098;51.140;4.088;2023-04-03T07:18:33;8.60;90.70
32217;DHT22;67098;51.140;4.088;2023-04-03T07:20:59;8.70;89.90
32217;DHT22;67098;51.140;4.088;2023-04-03T07:23:24;8.90;89.70
32217;DHT22;67098;51.140;4.088;2023-04-03T07:25:51;9.10;89.00
32217;DHT22;67098;51.140;4.088;2023-04-03T07:28:19;9.20;87.20
32217;DHT22;67098;51.140;4.088;2023-04-03T07:30:46;9.40;86.00
32217;DHT22;67098;51.140;4.088;2023-04-03T07:33:14;9.40;85.20
32217;DHT22;67098;51.140;4.088;2023-04-03T07:35:40;9.40;83.70
32217;DHT22;67098;51.140;4.088;2023-04-03T07:38:06;9.40;83.60
32217;DHT22;67098;51.140;4.088;2023-04-03T07:40:32;9.50;83.80
32217;DHT22;67098;51.140;4.088;2023-04-03T07:42:58;9.80;83.80
32217;DHT22;67098;51.140;4.088;2023-04-03T07:45:24;10.10;82.70
32217;DHT22;67098;51.140;4.088;2023-04-03T07:47:50;10.30;81.90
32217;DHT22;67098;51.140;4.088;2023-04-03T07:50:16;10.50;81.30
32217;DHT22;67098;51.140;4.088;2023-04-03T07:52:42;10.80;80.90
32217;DHT22;67098;51.140;4.088;2023-04-03T07:55:08;11.00;80.10
32217;DHT22;67098;51.140;4.088;2023-04-03T07:57:33;11.20;79.00
32217;DHT22;67098;51.140;4.088;2023-04-03T07:59:59;11.30;77.50
32217;DHT22;67098;51.140;4.088;2023-04-03T08:02:25;11.40;77.30
32217;DHT22;67098;51.140;4.088;2023-04-03T08:04:50;11.50;77.80
32217;DHT22;67098;51.140;4.088;2023-04-03T08:07:16;11.50;75.20
32217;DHT22;67098;51.140;4.088;2023-04-03T08:09:42;11.60;76.00
32217;DHT22;67098;51.140;4.088;2023-04-03T08:12:07;11.90;75.80
32217;DHT22;67098;51.140;4.088;2023-04-03T08:14:33;12.10;75.10
32217;DHT22;67098;51.140;4.088;2023-04-03T08:17:02;12.20;74.40
32217;DHT22;67098;51.140;4.088;2023-04-03T08:19:30;12.30;74.10
32217;DHT22;67098;51.140;4.088;2023-04-03T08:21:56;12.30;74.10
32217;DHT22;67098;51.140;4.088;2023-04-03T08:24:24;12.30;72.80
32217;DHT22;67098;51.140;4.088;2023-04-03T08:26:50;12.30;72.60
32217;DHT22;67098;51.140;4.088;2023-04-03T08:29:15;12.30;73.60
32217;DHT22;67098;51.140;4.088;2023-04-03T08:31:41;12.40;73.20
32217;DHT22;67098;51.140;4.088;2023-04-03T08:34:07;12.50;72.10
32217;DHT22;67098;51.140;4.088;2023-04-03T08:36:33;12.50;71.30
32217;DHT22;67098;51.140;4.088;2023-04-03T08:38:59;12.80;72.00
32217;DHT22;67098;51.140;4.088;2023-04-03T08:44:07;13.00;70.40
32217;DHT22;67098;51.140;4.088;2023-04-03T08:49:40;13.40;69.00
32217;DHT22;67098;51.140;4.088;2023-04-03T08:52:15;13.40;69.30
32217;DHT22;67098;51.140;4.088;2023-04-03T08:54:55;13.60;69.70
32217;DHT22;67098;51.140;4.088;2023-04-03T08:57:41;13.80;67.80
32217;DHT22;67098;51.140;4.088;2023-04-03T09:00:20;14.10;68.20
32217;DHT22;67098;51.140;4.088;2023-04-03T09:02:51;14.30;67.10
32217;DHT22;67098;51.140;4.088;2023-04-03T09:05:33;14.50;65.30
32217;DHT22;67098;51.140;4.088;2023-04-03T09:22:20;15.00;62.40
32217;DHT22;67098;51.140;4.088;2023-04-03T09:24:52;15.30;62.30
32217;DHT22;67098;51.140;4.088;2023-04-03T09:27:21;15.50;60.20
32217;DHT22;67098;51.140;4.088;2023-04-03T09:29:47;15.80;60.10
32217;DHT22;67098;51.140;4.088;2023-04-03T09:32:22;15.90;59.90
32217;DHT22;67098;51.140;4.088;2023-04-03T09:34:51;16.00;59.60
32217;DHT22;67098;51.140;4.088;2023-04-03T09:37:40;15.90;58.70
32217;DHT22;67098;51.140;4.088;2023-04-03T09:40:31;15.70;58.30
32217;DHT22;67098;51.140;4.088;2023-04-03T09:43:19;16.00;57.60
32217;DHT22;67098;51.140;4.088;2023-04-03T09:45:50;15.70;55.10
32217;DHT22;67098;51.140;4.088;2023-04-03T09:48:34;15.70;54.90
32217;DHT22;67098;51.140;4.088;2023-04-03T09:51:02;15.80;54.80
32217;DHT22;67098;51.140;4.088;2023-04-03T09:53:46;16.10;56.70
32217;DHT22;67098;51.140;4.088;2023-04-03T09:59:12;16.60;54.10
32217;DHT22;67098;51.140;4.088;2023-04-03T10:01:42;16.40;53.20
32217;DHT22;67098;51.140;4.088;2023-04-03T10:04:18;16.20;52.80
32217;DHT22;67098;51.140;4.088;2023-04-03T10:06:47;16.30;53.60
32217;DHT22;67098;51.140;4.088;2023-04-03T10:09:26;16.50;52.90
32217;DHT22;67098;51.140;4.088;2023-04-03T10:14:25;16.80;53.50
32217;DHT22;67098;51.140;4.088;2023-04-03T10:19:53;17.10;52.10
32217;DHT22;67098;51.140;4.088;2023-04-03T10:22:43;17.50;51.20
32217;DHT22;67098;51.140;4.088;2023-04-03T10:28:00;18.00;49.60
32217;DHT22;67098;51.140;4.088;2023-04-03T10:30:34;18.00;50.10
32217;DHT22;67098;51.140;4.088;2023-04-03T10:33:22;18.20;50.00
32217;DHT22;67098;51.140;4.088;2023-04-03T10:36:02;18.50;50.00
32217;DHT22;67098;51.140;4.088;2023-04-03T10:38:48;18.90;48.50
32217;DHT22;67098;51.140;4.088;2023-04-03T10:50:00;18.80;44.40
32217;DHT22;67098;51.140;4.088;2023-04-03T10:58:38;18.90;44.20
32217;DHT22;67098;51.140;4.088;2023-04-03T11:01:20;19.30;44.20
32217;DHT22;67098;51.140;4.088;2023-04-03T11:03:56;19.80;44.40
32217;DHT22;67098;51.140;4.088;2023-04-03T11:06:25;19.90;43.50
32217;DHT22;67098;51.140;4.088;2023-04-03T11:11:37;19.60;41.00
32217;DHT22;67098;51.140;4.088;2023-04-03T11:14:21;19.80;41.80
32217;DHT22;67098;51.140;4.088;2023-04-03T11:22:41;20.60;41.50
32217;DHT22;67098;51.140;4.088;2023-04-03T11:27:49;20.70;41.00
32217;DHT22;67098;51.140;4.088;2023-04-03T11:30:27;20.70;41.10
32217;DHT22;67098;51.140;4.088;2023-04-03T11:35:34;20.90;40.50
32217;DHT22;67098;51.140;4.088;2023-04-03T11:38:02;21.30;40.20
32217;DHT22;67098;51.140;4.088;2023-04-03T11:40:33;21.10;38.80
32217;DHT22;67098;51.140;4.088;2023-04-03T11:45:27;21.20;40.40
32217;DHT22;67098;51.140;4.088;2023-04-03T11:48:01;21.70;39.40
32217;DHT22;67098;51.140;4.088;2023-04-03T11:50:46;22.10;39.50
32217;DHT22;67098;51.140;4.088;2023-04-03T11:59:30;21.50;37.50
32217;DHT22;67098;51.140;4.088;2023-04-03T12:04:19;21.30;36.60
32217;DHT22;67098;51.140;4.088;2023-04-03T12:12:37;21.20;35.10
32217;DHT22;67098;51.140;4.088;2023-04-03T12:18:36;21.00;35.60
32217;DHT22;67098;51.140;4.088;2023-04-03T12:21:05;21.10;35.00
32217;DHT22;67098;51.140;4.088;2023-04-03T12:23:36;20.70;34.90
32217;DHT22;67098;51.140;4.088;2023-04-03T12:28:48;20.50;35.30
32217;DHT22;67098;51.140;4.088;2023-04-03T12:31:16;20.80;35.60
32217;DHT22;67098;51.140;4.088;2023-04-03T12:34:17;20.90;35.50
32217;DHT22;67098;51.140;4.088;2023-04-03T12:37:01;20.90;35.60
32217;DHT22;67098;51.140;4.088;2023-04-03T12:39:55;21.30;33.20
32217;DHT22;67098;51.140;4.088;2023-04-03T12:42:37;21.20;32.20
32217;DHT22;67098;51.140;4.088;2023-04-03T12:45:24;21.30;31.90
32217;DHT22;67098;51.140;4.088;2023-04-03T12:47:55;21.50;31.40
32217;DHT22;67098;51.140;4.088;2023-04-03T12:50:27;22.20;33.40
32217;DHT22;67098;51.140;4.088;2023-04-03T12:53:05;22.50;31.90
32217;DHT22;67098;51.140;4.088;2023-04-03T12:55:31;22.70;31.50
32217;DHT22;67098;51.140;4.088;2023-04-03T12:58:12;22.70;32.00
32217;DHT22;67098;51.140;4.088;2023-04-03T13:00:38;23.10;31.50
32217;DHT22;67098;51.140;4.088;2023-04-03T13:03:06;22.80;30.50
32217;DHT22;67098;51.140;4.088;2023-04-03T13:05:32;22.70;30.30
32217;DHT22;67098;51.140;4.088;2023-04-03T13:08:10;22.70;30.50
32217;DHT22;67098;51.140;4.088;2023-04-03T13:10:53;22.10;31.10
32217;DHT22;67098;51.140;4.088;2023-04-03T13:13:19;21.90;31.00
32217;DHT22;67098;51.140;4.088;2023-04-03T13:15:47;22.30;31.00
32217;DHT22;67098;51.140;4.088;2023-04-03T13:18:29;22.10;30.80
32217;DHT22;67098;51.140;4.088;2023-04-03T13:21:45;22.20;30.60
32217;DHT22;67098;51.140;4.088;2023-04-03T13:23:49;22.20;30.50
32217;DHT22;67098;51.140;4.088;2023-04-03T13:26:17;21.90;31.30
32217;DHT22;67098;51.140;4.088;2023-04-03T13:28:44;22.00;30.70
32217;DHT22;67098;51.140;4.088;2023-04-03T13:33:51;21.80;30.00
32217;DHT22;67098;51.140;4.088;2023-04-03T13:36:21;21.00;30.90
32217;DHT22;67098;51.140;4.088;2023-04-03T13:39:03;21.00;30.30
32217;DHT22;67098;51.140;4.088;2023-04-03T13:41:36;21.60;30.60
32217;DHT22;67098;51.140;4.088;2023-04-03T13:44:16;22.00;30.00
32217;DHT22;67098;51.140;4.088;2023-04-03T13:46:42;22.60;29.90
32217;DHT22;67098;51.140;4.088;2023-04-03T13:49:26;22.30;30.70
32217;DHT22;67098;51.140;4.088;2023-04-03T13:51:53;22.20;30.20
32217;DHT22;67098;51.140;4.088;2023-04-03T13:54:34;22.60;30.20
32217;DHT22;67098;51.140;4.088;2023-04-03T13:57:00;22.70;29.80
32217;DHT22;67098;51.140;4.088;2023-04-03T13:59:35;22.30;30.40
32217;DHT22;67098;51.140;4.088;2023-04-03T14:04:32;22.40;29.70
32217;DHT22;67098;51.140;4.088;2023-04-03T14:06:58;22.50;29.80
32217;DHT22;67098;51.140;4.088;2023-04-03T14:09:25;22.50;30.00
32217;DHT22;67098;51.140;4.088;2023-04-03T14:12:06;22.30;30.00
32217;DHT22;67098;51.140;4.088;2023-04-03T14:14:35;22.30;30.50
32217;DHT22;67098;51.140;4.088;2023-04-03T14:17:05;22.70;30.40
32217;DHT22;67098;51.140;4.088;2023-04-03T14:19:36;22.30;28.70
32217;DHT22;67098;51.140;4.088;2023-04-03T14:22:15;22.30;29.50
32217;DHT22;67098;51.140;4.088;2023-04-03T14:24:41;22.30;29.60
32217;DHT22;67098;51.140;4.088;2023-04-03T14:27:33;22.40;29.30
32217;DHT22;67098;51.140;4.088;2023-04-03T14:29:59;22.40;30.00
32217;DHT22;67098;51.140;4.088;2023-04-03T14:32:26;22.10;30.00
32217;DHT22;67098;51.140;4.088;2023-04-03T14:34:53;22.40;29.60
32217;DHT22;67098;51.140;4.088;2023-04-03T14:37:22;22.50;30.00
32217;DHT22;67098;51.140;4.088;2023-04-03T14:39:50;22.30;29.70
32217;DHT22;67098;51.140;4.088;2023-04-03T14:42:24;22.50;30.00
32217;DHT22;67098;51.140;4.088;2023-04-03T14:44:50;22.70;29.50
32217;DHT22;67098;51.140;4.088;2023-04-03T14:47:19;22.70;29.30
32217;DHT22;67098;51.140;4.088;2023-04-03T14:49:46;22.50;29.40
32217;DHT22;67098;51.140;4.088;2023-04-03T14:52:23;22.20;30.10
32217;DHT22;67098;51.140;4.088;2023-04-03T14:54:50;22.20;29.80
32217;DHT22;67098;51.140;4.088;2023-04-03T14:57:17;22.20;30.00
32217;DHT22;67098;51.140;4.088;2023-04-03T14:59:44;21.90;30.30
32217;DHT22;67098;51.140;4.088;2023-04-03T15:02:34;21.90;29.80
32217;DHT22;67098;51.140;4.088;2023-04-03T15:05:02;22.00;30.00
32217;DHT22;67098;51.140;4.088;2023-04-03T15:07:32;22.00;29.80
32217;DHT22;67098;51.140;4.088;2023-04-03T15:10:05;22.30;30.40
32217;DHT22;67098;51.140;4.088;2023-04-03T15:12:32;22.00;30.50
32217;DHT22;67098;51.140;4.088;2023-04-03T15:14:57;21.90;29.80
32217;DHT22;67098;51.140;4.088;2023-04-03T15:17:23;21.80;29.90
32217;DHT22;67098;51.140;4.088;2023-04-03T15:19:49;21.50;29.90
32217;DHT22;67098;51.140;4.088;2023-04-03T15:22:17;20.90;30.40
32217;DHT22;67098;51.140;4.088;2023-04-03T15:24:43;21.00;30.20
32217;DHT22;67098;51.140;4.088;2023-04-03T15:27:10;21.40;30.40
32217;DHT22;67098;51.140;4.088;2023-04-03T15:29:37;21.60;30.20
32217;DHT22;67098;51.140;4.088;2023-04-03T15:32:03;21.70;29.90
32217;DHT22;67098;51.140;4.088;2023-04-03T15:34:29;21.70;29.70
32217;DHT22;67098;51.140;4.088;2023-04-03T15:36:55;21.70;30.20
32217;DHT22;67098;51.140;4.088;2023-04-03T15:39:20;21.50;30.20
32217;DHT22;67098;51.140;4.088;2023-04-03T15:41:46;21.40;29.40
32217;DHT22;67098;51.140;4.088;2023-04-03T15:44:12;21.40;30.20
32217;DHT22;67098;51.140;4.088;2023-04-03T15:46:39;21.00;29.70
32217;DHT22;67098;51.140;4.088;2023-04-03T15:49:05;20.80;29.90
32217;DHT22;67098;51.140;4.088;2023-04-03T15:51:31;20.20;30.00
32217;DHT22;67098;51.140;4.088;2023-04-03T15:53:57;19.80;31.00
32217;DHT22;67098;51.140;4.088;2023-04-03T15:56:22;19.50;30.90
32217;DHT22;67098;51.140;4.088;2023-04-03T15:58:48;19.60;31.10
32217;DHT22;67098;51.140;4.088;2023-04-03T16:01:14;19.40;31.60
32217;DHT22;67098;51.140;4.088;2023-04-03T16:03:40;19.40;31.50
32217;DHT22;67098;51.140;4.088;2023-04-03T16:06:12;19.30;32.00
32217;DHT22;67098;51.140;4.088;2023-04-03T16:08:37;19.00;32.30
32217;DHT22;67098;51.140;4.088;2023-04-03T16:11:03;18.90;31.90
32217;DHT22;67098;51.140;4.088;2023-04-03T16:13:29;18.60;31.70
32217;DHT22;67098;51.140;4.088;2023-04-03T16:15:56;18.40;32.10
32217;DHT22;67098;51.140;4.088;2023-04-03T16:18:21;17.90;31.60
32217;DHT22;67098;51.140;4.088;2023-04-03T16:20:47;17.30;32.50
32217;DHT22;67098;51.140;4.088;2023-04-03T16:23:13;17.10;33.30
32217;DHT22;67098;51.140;4.088;2023-04-03T16:25:38;17.10;33.20
32217;DHT22;67098;51.140;4.088;2023-04-03T16:28:05;16.80;34.10
32217;DHT22;67098;51.140;4.088;2023-04-03T16:30:30;16.60;34.50
32217;DHT22;67098;51.140;4.088;2023-04-03T16:32:56;16.70;35.20
32217;DHT22;67098;51.140;4.088;2023-04-03T16:35:22;16.40;34.60
32217;DHT22;67098;51.140;4.088;2023-04-03T16:37:48;16.30;35.20
32217;DHT22;67098;51.140;4.088;2023-04-03T16:40:14;16.00;35.60
32217;DHT22;67098;51.140;4.088;2023-04-03T16:42:39;15.70;35.90
32217;DHT22;67098;51.140;4.088;2023-04-03T16:45:06;15.60;36.10
32217;DHT22;67098;51.140;4.088;2023-04-03T16:47:32;15.40;36.20
32217;DHT22;67098;51.140;4.088;2023-04-03T16:49:58;15.20;36.90
32217;DHT22;67098;51.140;4.088;2023-04-03T16:52:24;15.10;36.80
32217;DHT22;67098;51.140;4.088;2023-04-03T16:54:49;14.70;37.40
32217;DHT22;67098;51.140;4.088;2023-04-03T16:57:17;14.50;37.70
32217;DHT22;67098;51.140;4.088;2023-04-03T16:59:42;14.30;38.60
32217;DHT22;67098;51.140;4.088;2023-04-03T17:02:08;14.10;39.50
32217;DHT22;67098;51.140;4.088;2023-04-03T17:04:33;14.00;39.30
32217;DHT22;67098;51.140;4.088;2023-04-03T17:07:00;14.00;39.70
32217;DHT22;67098;51.140;4.088;2023-04-03T17:09:30;13.80;39.80
32217;DHT22;67098;51.140;4.088;2023-04-03T17:11:56;13.60;40.20
32217;DHT22;67098;51.140;4.088;2023-04-03T17:14:21;13.60;40.20
32217;DHT22;67098;51.140;4.088;2023-04-03T17:16:47;13.50;40.50
32217;DHT22;67098;51.140;4.088;2023-04-03T17:19:13;13.40;40.90
32217;DHT22;67098;51.140;4.088;2023-04-03T17:21:39;13.30;41.60